createdAt,value
2019-04-14T00:03:24.451Z,45.85
2019-04-14T00:05:58.415Z,38.73
2019-04-14T00:08:28.370Z,41.37
2019-04-14T00:10:59.469Z,40.15
2019-04-14T00:13:31.090Z,38.85
2019-04-14T00:16:11.737Z,40.63
2019-04-14T00:18:44.652Z,38.90
2019-04-14T00:21:19.384Z,37.17
2019-04-14T00:23:54.530Z,41.77
2019-04-14T00:29:21.644Z,41.53
2019-04-14T00:31:54.192Z,47.15
2019-04-14T00:34:44.206Z,47.33
2019-04-14T00:44:16.761Z,41.50
2019-04-14T00:46:51.470Z,46.53
2019-04-14T00:51:02.664Z,47.25
2019-04-14T00:52:01.467Z,42.93
2019-04-14T00:54:30.354Z,47.45
2019-04-14T00:57:03.215Z,43.28
2019-04-14T00:59:33.397Z,44.13
2019-04-14T01:02:03.484Z,46.80
2019-04-14T01:11:15.955Z,50.05
2019-04-14T01:13:48.626Z,50.90
2019-04-14T01:19:13.280Z,50.52
2019-04-14T01:21:46.504Z,51.00
2019-04-14T01:24:23.043Z,51.58
2019-04-14T01:26:53.525Z,50.15
2019-04-14T01:29:27.678Z,50.20
2019-04-14T01:32:04.432Z,46.55
2019-04-14T01:34:39.521Z,45.55
2019-04-14T01:37:13.668Z,47.40
2019-04-14T01:40:34.227Z,51.85
2019-04-14T01:43:10.515Z,52.50
2019-04-14T01:48:41.028Z,43.17
2019-04-14T01:52:05.894Z,49.33
2019-04-14T01:54:45.363Z,50.73
2019-04-14T02:00:18.443Z,49.63
2019-04-14T02:05:53.936Z,45.95
2019-04-14T02:11:23.033Z,47.15
2019-04-14T02:16:54.160Z,50.50
2019-04-14T02:19:24.155Z,48.48
2019-04-14T02:21:58.385Z,44.00
2019-04-14T02:24:28.933Z,49.58
2019-04-14T02:27:53.664Z,50.28
2019-04-14T02:30:28.432Z,50.50
2019-04-14T02:33:23.604Z,49.75
2019-04-14T02:36:07.945Z,53.08
2019-04-14T02:39:13.553Z,54.03
2019-04-14T02:46:21.928Z,54.03
2019-04-14T02:54:46.738Z,52.50
2019-04-14T02:57:10.086Z,47.48
2019-04-14T02:59:44.655Z,50.33
2019-04-14T03:04:50.857Z,52.67
2019-04-14T03:08:08.430Z,50.63
2019-04-14T03:10:45.952Z,54.00
2019-04-14T03:13:15.316Z,47.15
2019-04-14T03:15:41.745Z,49.50
2019-04-14T03:24:13.012Z,47.27
2019-04-14T03:26:49.292Z,48.98
2019-04-14T03:29:26.885Z,46.25
2019-04-14T03:32:11.156Z,49.10
2019-04-14T03:35:58.090Z,47.88
2019-04-14T03:37:56.670Z,50.23
2019-04-14T03:40:25.654Z,51.00
2019-04-14T03:43:09.969Z,43.95
2019-04-14T03:53:22.031Z,49.80
2019-04-14T03:55:54.339Z,49.33
2019-04-14T03:58:22.486Z,51.70
2019-04-14T04:00:53.337Z,51.35
2019-04-14T04:03:25.964Z,50.55
2019-04-14T04:05:58.618Z,51.70
2019-04-14T04:08:29.140Z,51.18
2019-04-14T04:11:03.958Z,54.80
2019-04-14T04:13:36.632Z,55.50
2019-04-14T04:16:22.272Z,56.75
2019-04-14T04:19:07.372Z,51.08
2019-04-14T04:21:35.724Z,53.52
2019-04-14T04:24:10.774Z,53.48
2019-04-14T04:26:47.150Z,57.88
2019-04-14T04:29:30.947Z,52.93
2019-04-14T04:32:10.099Z,51.85
2019-04-14T04:34:46.639Z,58.05
2019-04-14T04:37:19.981Z,55.40
2019-04-14T04:39:56.170Z,49.65
2019-04-14T04:42:26.493Z,52.15
2019-04-14T04:44:59.648Z,58.45
2019-04-14T04:47:29.508Z,58.95
2019-04-14T04:50:00.086Z,59.93
2019-04-14T04:52:32.243Z,54.85
2019-04-14T04:55:02.706Z,53.05
2019-04-14T04:57:35.925Z,56.60
2019-04-14T05:00:09.559Z,56.08
2019-04-14T05:02:41.823Z,58.95
2019-04-14T05:05:43.400Z,58.02
2019-04-14T05:08:17.310Z,55.23
2019-04-14T05:10:52.442Z,60.92
2019-04-14T05:13:23.304Z,57.20
2019-04-14T05:15:57.507Z,63.78
2019-04-14T05:18:31.311Z,67.03
2019-04-14T05:21:02.010Z,67.32
2019-04-14T05:23:34.403Z,62.53
2019-04-14T05:26:08.912Z,59.75
2019-04-14T05:28:39.658Z,67.05
2019-04-14T05:31:09.811Z,68.75
2019-04-14T05:33:51.176Z,61.95
2019-04-14T05:36:26.015Z,67.12
2019-04-14T05:38:56.000Z,65.65
2019-04-14T05:41:29.337Z,60.40
2019-04-14T05:44:06.093Z,65.20
2019-04-14T05:46:38.220Z,61.08
2019-04-14T05:49:24.544Z,64.30
2019-04-14T05:51:46.286Z,62.93
2019-04-14T05:54:17.156Z,65.17
2019-04-14T05:56:52.255Z,60.43
2019-04-14T05:59:25.007Z,64.58
2019-04-14T06:01:54.592Z,60.38
2019-04-14T06:04:26.717Z,59.23
2019-04-14T06:07:00.458Z,63.63
2019-04-14T06:09:31.501Z,57.58
2019-04-14T06:12:04.315Z,57.13
2019-04-14T06:14:39.097Z,58.05
2019-04-14T06:17:13.467Z,55.78
2019-04-14T06:19:55.114Z,60.12
2019-04-14T06:22:26.143Z,50.67
2019-04-14T06:24:58.305Z,54.05
2019-04-14T06:27:30.209Z,54.23
2019-04-14T06:30:20.250Z,49.42
2019-04-14T06:32:53.800Z,48.48
2019-04-14T06:35:41.342Z,47.20
2019-04-14T06:38:18.811Z,43.23
2019-04-14T06:41:02.794Z,45.17
2019-04-14T06:43:26.939Z,43.55
2019-04-14T06:46:00.234Z,41.55
2019-04-14T06:48:34.720Z,41.02
2019-04-14T06:51:06.313Z,46.73
2019-04-14T06:53:37.854Z,41.45
2019-04-14T06:56:10.257Z,38.73
2019-04-14T06:58:44.574Z,41.70
2019-04-14T07:01:19.907Z,37.63
2019-04-14T07:03:49.653Z,37.38
2019-04-14T07:06:21.109Z,34.67
2019-04-14T07:08:52.449Z,40.17
2019-04-14T07:11:23.250Z,38.67
2019-04-14T07:13:54.877Z,36.50
2019-04-14T07:16:30.743Z,35.95
2019-04-14T07:19:00.171Z,32.17
2019-04-14T07:21:35.132Z,35.08
2019-04-14T07:24:08.606Z,38.83
2019-04-14T07:26:43.248Z,37.15
2019-04-14T07:29:17.446Z,37.15
2019-04-14T07:32:01.322Z,38.30
2019-04-14T07:34:33.073Z,36.00
2019-04-14T07:37:18.929Z,36.73
2019-04-14T07:39:59.202Z,42.08
2019-04-14T07:42:39.833Z,37.15
2019-04-14T07:45:15.904Z,41.37
2019-04-14T07:47:48.300Z,39.55
2019-04-14T07:50:44.178Z,41.02
2019-04-14T07:53:36.157Z,39.90
2019-04-14T07:56:15.414Z,41.18
2019-04-14T07:58:55.513Z,40.12
2019-04-14T08:01:35.295Z,42.60
2019-04-14T08:04:07.650Z,40.12
2019-04-14T08:06:43.776Z,41.00
2019-04-14T08:09:16.636Z,43.70
2019-04-14T08:11:56.603Z,42.30
2019-04-14T08:14:29.960Z,43.60
2019-04-14T08:17:02.502Z,48.00
2019-04-14T08:19:35.714Z,46.95
2019-04-14T08:22:15.393Z,47.08
2019-04-14T08:24:49.765Z,45.92
2019-04-14T08:27:25.533Z,46.85
2019-04-14T08:29:53.003Z,49.88
2019-04-14T08:32:25.508Z,45.12
2019-04-14T08:35:01.636Z,43.98
2019-04-14T08:37:37.588Z,46.18
2019-04-14T08:40:10.130Z,40.88
2019-04-14T08:42:49.079Z,41.20
2019-04-14T08:45:40.721Z,41.33
2019-04-14T08:48:23.880Z,42.62
2019-04-14T08:51:02.767Z,42.13
2019-04-14T08:53:58.021Z,41.43
2019-04-14T08:56:34.762Z,40.20
2019-04-14T08:59:24.557Z,42.77
2019-04-14T09:01:56.474Z,39.57
2019-04-14T09:04:44.089Z,38.70
2019-04-14T09:07:24.176Z,42.83
2019-04-14T09:09:57.077Z,38.30
2019-04-14T09:12:35.232Z,40.40
2019-04-14T09:15:10.228Z,37.03
2019-04-14T09:17:40.130Z,40.17
2019-04-14T09:20:16.244Z,35.27
2019-04-14T09:23:00.096Z,37.37
2019-04-14T09:25:17.587Z,37.27
2019-04-14T09:27:52.485Z,38.17
2019-04-14T09:30:35.286Z,37.77
2019-04-14T09:33:05.948Z,37.90
2019-04-14T09:35:38.817Z,35.50
2019-04-14T09:38:09.181Z,36.73
2019-04-14T09:40:40.915Z,35.63
2019-04-14T09:43:15.410Z,36.03
2019-04-14T09:45:49.076Z,36.87
2019-04-14T09:48:18.884Z,36.63
2019-04-14T09:51:04.202Z,32.33
2019-04-14T09:53:30.362Z,31.20
2019-04-14T09:56:10.596Z,33.13
2019-04-14T09:58:45.559Z,33.33
2019-04-14T10:01:16.528Z,31.33
2019-04-14T10:03:46.891Z,35.10
2019-04-14T10:06:17.390Z,30.00
2019-04-14T10:08:47.185Z,30.83
2019-04-14T10:11:20.012Z,33.70
2019-04-14T10:13:51.324Z,31.37
2019-04-14T10:16:23.562Z,34.30
2019-04-14T10:18:55.854Z,28.37
2019-04-14T10:21:25.718Z,30.33
2019-04-14T10:23:59.096Z,31.83
2019-04-14T10:26:28.074Z,30.00
2019-04-14T10:28:57.454Z,27.90
2019-04-14T10:31:30.740Z,27.10
2019-04-14T10:34:04.345Z,31.60
2019-04-14T10:36:41.676Z,26.87
2019-04-14T10:39:14.251Z,32.83
2019-04-14T10:41:43.622Z,29.53
2019-04-14T10:44:15.822Z,28.30
2019-04-14T10:46:49.418Z,29.83
2019-04-14T10:49:21.350Z,27.67
2019-04-14T10:51:55.309Z,29.47
2019-04-14T10:54:32.032Z,28.70
2019-04-14T10:57:02.378Z,27.37
2019-04-14T10:59:47.866Z,25.53
2019-04-14T11:02:23.335Z,28.47
2019-04-14T11:05:05.963Z,25.20
2019-04-14T11:07:36.709Z,23.83
2019-04-14T11:10:08.249Z,25.30
2019-04-14T11:12:51.464Z,23.17
2019-04-14T11:15:21.605Z,27.83
2019-04-14T11:17:52.089Z,26.20
2019-04-14T11:20:28.945Z,26.70
2019-04-14T11:23:03.492Z,27.23
2019-04-14T11:25:30.636Z,26.10
2019-04-14T11:28:05.060Z,29.03
2019-04-14T11:30:38.183Z,25.27
2019-04-14T11:33:17.968Z,27.20
2019-04-14T11:36:04.182Z,26.40
2019-04-14T11:38:39.503Z,25.73
2019-04-14T11:41:13.305Z,25.90
2019-04-14T11:43:45.107Z,25.43
2019-04-14T11:53:27.410Z,23.00
2019-04-14T11:56:02.533Z,21.40
2019-04-14T11:58:59.198Z,26.00
2019-04-14T12:01:43.404Z,23.27
2019-04-14T12:04:15.285Z,23.53
2019-04-14T12:07:02.494Z,26.27
2019-04-14T12:12:25.089Z,24.33
2019-04-14T12:14:54.332Z,24.50
2019-04-14T12:17:49.563Z,24.87
2019-04-14T12:20:24.945Z,22.43
2019-04-14T12:22:58.581Z,23.87
2019-04-14T12:25:31.616Z,20.10
2019-04-14T12:28:07.093Z,19.80
2019-04-14T12:34:00.097Z,20.87
2019-04-14T12:37:22.681Z,19.27
2019-04-14T12:39:55.349Z,19.87
2019-04-14T12:45:38.006Z,17.70
2019-04-14T12:48:43.671Z,17.43
2019-04-14T12:52:21.341Z,18.90
2019-04-14T12:53:45.858Z,18.70
2019-04-14T12:57:06.498Z,21.30
2019-04-14T12:59:39.334Z,20.20
2019-04-14T13:05:13.877Z,20.00
2019-04-14T13:07:42.863Z,19.37
2019-04-14T13:10:22.247Z,20.27
2019-04-14T13:12:53.989Z,20.53
2019-04-14T13:15:37.856Z,20.63
2019-04-14T13:18:07.493Z,15.30
2019-04-14T13:20:38.880Z,18.27
2019-04-14T13:26:37.908Z,19.70
2019-04-14T13:29:12.462Z,20.17
2019-04-14T13:31:44.624Z,16.90
2019-04-14T13:34:13.529Z,20.10
2019-04-14T13:36:42.781Z,18.97
2019-04-14T13:39:12.816Z,18.03
2019-04-14T13:41:47.181Z,22.43
2019-04-14T13:44:17.815Z,20.57
2019-04-14T13:54:00.247Z,17.13
2019-04-14T13:56:32.577Z,18.07
2019-04-14T13:59:02.330Z,17.60
2019-04-14T14:01:31.556Z,20.93
2019-04-14T14:04:07.697Z,18.57
2019-04-14T14:07:35.537Z,19.47
2019-04-14T14:10:08.954Z,16.90
2019-04-14T14:13:32.022Z,22.33
2019-04-14T14:16:15.954Z,17.13
2019-04-14T14:19:26.722Z,19.10
2019-04-14T14:22:12.579Z,19.03
2019-04-14T14:24:46.812Z,19.63
2019-04-14T14:27:20.761Z,19.27
2019-04-14T14:29:50.558Z,17.60
2019-04-14T14:35:24.254Z,17.20
2019-04-14T14:37:53.564Z,15.83
2019-04-14T14:40:34.643Z,15.10
2019-04-14T14:43:03.678Z,17.77
2019-04-14T14:46:30.741Z,14.50
2019-04-14T14:49:17.937Z,17.57
2019-04-14T14:51:56.132Z,16.23
2019-04-14T14:54:27.310Z,15.60
2019-04-14T14:56:56.543Z,19.50
2019-04-14T15:00:09.140Z,16.10
2019-04-14T15:02:40.043Z,15.50
2019-04-14T15:05:09.546Z,15.07
2019-04-14T15:07:48.822Z,13.87
2019-04-14T15:10:21.227Z,13.93
2019-04-14T15:13:17.504Z,15.40
2019-04-14T15:15:47.981Z,15.00
2019-04-14T15:18:37.256Z,16.03
2019-04-14T15:21:12.784Z,15.57
2019-04-14T15:23:46.898Z,16.03
2019-04-14T15:26:16.364Z,12.37
2019-04-14T15:28:45.603Z,14.57
2019-04-14T15:31:18.879Z,15.40
2019-04-14T15:34:26.340Z,13.23
2019-04-14T15:37:00.925Z,15.60
2019-04-14T15:39:37.387Z,16.70
2019-04-14T15:42:10.916Z,14.70
2019-04-14T15:44:51.062Z,14.03
2019-04-14T15:50:16.366Z,12.40
2019-04-14T15:53:17.784Z,13.33
2019-04-14T15:55:50.492Z,15.60
2019-04-14T15:59:12.560Z,15.10
2019-04-14T16:01:02.960Z,16.03
2019-04-14T16:03:34.250Z,13.87
2019-04-14T16:06:51.908Z,12.53
2019-04-14T16:09:28.918Z,15.03
2019-04-14T16:15:12.520Z,14.97
2019-04-14T16:20:41.217Z,15.07
2019-04-14T16:26:46.486Z,16.60
2019-04-14T16:32:29.097Z,12.53
2019-04-14T16:44:12.418Z,15.27
2019-04-14T16:49:07.439Z,13.43
2019-04-14T16:51:40.933Z,15.03
2019-04-14T16:54:30.558Z,15.00
2019-04-14T17:00:05.551Z,13.83
2019-04-14T17:05:26.948Z,16.80
2019-04-14T17:08:08.363Z,15.20
2019-04-14T17:10:45.567Z,18.80
2019-04-14T17:13:18.473Z,16.47
2019-04-14T17:16:05.583Z,15.87
2019-04-14T17:19:31.848Z,15.33
2019-04-14T17:22:25.316Z,12.60
2019-04-14T17:28:04.424Z,18.17
2019-04-14T17:30:56.291Z,16.27
2019-04-14T17:33:44.158Z,17.83
2019-04-14T17:39:33.376Z,15.33
2019-04-14T17:42:06.406Z,17.47
2019-04-14T17:44:47.771Z,16.10
2019-04-14T17:47:23.696Z,13.03
2019-04-14T17:50:03.999Z,16.33
2019-04-14T17:52:39.787Z,16.00
2019-04-14T17:55:50.251Z,15.17
2019-04-14T17:58:34.231Z,19.67
2019-04-14T18:04:34.352Z,14.77
2019-04-14T18:07:48.909Z,15.97
2019-04-14T18:10:35.059Z,14.57
2019-04-14T18:15:47.344Z,17.00
2019-04-14T18:18:19.637Z,13.70
2019-04-14T18:20:58.125Z,15.23
2019-04-14T18:23:32.001Z,17.13
2019-04-14T18:28:59.419Z,16.67
2019-04-14T18:31:36.148Z,17.00
2019-04-14T18:34:28.322Z,17.83
2019-04-14T18:39:58.654Z,19.57
2019-04-14T18:45:34.142Z,18.40
2019-04-14T18:50:59.874Z,19.50
2019-04-14T18:56:32.030Z,18.27
2019-04-14T19:02:17.458Z,14.33
2019-04-14T19:04:56.689Z,17.63
2019-04-14T19:07:32.684Z,17.67
2019-04-14T19:10:08.997Z,16.57
2019-04-14T19:13:28.141Z,18.30
2019-04-14T19:16:09.256Z,20.30
2019-04-14T19:19:25.291Z,16.50
2019-04-14T19:22:09.126Z,21.50
2019-04-14T19:24:42.243Z,17.53
2019-04-14T19:28:00.762Z,19.43
2019-04-14T19:30:35.573Z,20.17
2019-04-14T19:36:00.215Z,23.77
2019-04-14T19:38:38.955Z,20.53
2019-04-14T19:44:06.063Z,22.77
2019-04-14T19:47:17.492Z,18.97
2019-04-14T19:49:59.142Z,20.00
2019-04-14T19:55:37.151Z,18.53
2019-04-14T19:58:12.229Z,22.10
2019-04-14T20:00:43.159Z,21.50
2019-04-14T20:03:16.802Z,20.70
2019-04-14T20:08:52.358Z,19.30
2019-04-14T20:11:26.114Z,18.47
2019-04-14T20:14:14.188Z,19.63
2019-04-14T20:16:52.078Z,20.00
2019-04-14T20:27:22.523Z,18.13
2019-04-14T20:30:01.077Z,17.80
2019-04-14T20:32:36.602Z,20.40
2019-04-14T20:35:39.948Z,19.50
2019-04-14T20:38:12.666Z,21.23
2019-04-14T20:40:45.233Z,21.70
2019-04-14T20:43:24.684Z,20.23
2019-04-14T20:48:58.537Z,20.57
2019-04-14T20:54:24.136Z,17.47
2019-04-14T20:59:59.405Z,18.17
2019-04-14T21:05:32.539Z,19.40
2019-04-14T21:11:03.091Z,17.02
2019-04-14T21:13:39.095Z,22.27
2019-04-14T21:16:31.379Z,19.40
2019-04-14T21:21:51.567Z,21.00
2019-04-14T21:27:39.337Z,19.80
2019-04-14T21:30:50.236Z,20.70
2019-04-14T21:33:36.214Z,19.17
2019-04-14T21:39:36.255Z,20.55
2019-04-14T21:42:07.541Z,17.93
2019-04-14T21:44:49.078Z,17.93
2019-04-14T21:47:24.389Z,21.68
2019-04-14T21:52:49.795Z,17.27
2019-04-14T21:58:33.362Z,20.07
2019-04-14T22:04:45.992Z,17.07
2019-04-14T22:10:26.073Z,18.17
2019-04-14T22:13:08.453Z,18.25
2019-04-14T22:15:41.247Z,18.33
2019-04-14T22:18:12.674Z,18.12
2019-04-14T22:21:39.219Z,22.35
2019-04-14T22:24:17.938Z,17.25
2019-04-14T22:26:43.851Z,15.30
2019-04-14T22:29:58.047Z,18.45
2019-04-14T22:32:30.625Z,20.02
2019-04-14T22:35:05.751Z,18.27
2019-04-14T22:37:37.035Z,19.00
2019-04-14T22:40:09.428Z,19.65
2019-04-14T22:43:13.655Z,16.67
2019-04-14T22:45:52.779Z,18.92
2019-04-14T22:49:13.791Z,17.60
2019-04-14T22:52:01.459Z,19.87
2019-04-14T22:54:30.048Z,24.67
2019-04-14T22:57:35.821Z,18.55
2019-04-14T23:00:14.750Z,23.00
2019-04-14T23:05:36.550Z,21.82
2019-04-14T23:11:13.204Z,16.67
2019-04-14T23:17:00.272Z,19.37
2019-04-14T23:19:35.075Z,20.10
2019-04-14T23:22:17.017Z,21.33
2019-04-14T23:24:50.073Z,19.82
2019-04-14T23:27:21.392Z,17.92
2019-04-14T23:29:51.092Z,19.92
2019-04-14T23:35:13.939Z,18.48
2019-04-14T23:37:46.137Z,18.55
2019-04-14T23:40:26.333Z,18.32
2019-04-14T23:43:00.098Z,19.57
2019-04-14T23:46:02.704Z,17.40
2019-04-14T23:48:34.229Z,17.65
2019-04-14T23:51:07.056Z,18.27
2019-04-14T23:53:39.608Z,17.23
2019-04-14T23:56:14.035Z,16.57
2019-04-14T23:59:28.514Z,17.37
